Vernon, IL (62892)

06:49 AM CST del 13 Febbraio 2016 (GMT -0600)
Kinmundy Atmospheric Research Laboratory | | Change Station
CLOSE
Current Station
Stazione meteo personale
Location: Kinmundy, IL
Altitudine: 570 ft
Stazioni meteo nelle vicinanze

Alt. 570 ft 38.78 °N, 88.89 °W | Updated 11 minutes ago

Sereno
Sereno
10.2 °F
Sembra 3 °F
N
4.0
Vento Variabile Vento da NNO
Gusts 8.0 mph

Oggi
Massima -- | Minima -- °F
--% Possibilità di precip.
Ieri
Massima -- | Minima -- °F
Precip. -- in
Pressione 30.62 in
Visibilità 10.0 miglia
Nuvole Sereno
Raffreddamento del vento 3 °F
Punto di rugiada 3 °F
Umidità 73%
Piovosità 0.00 in
Spessore del manto nevoso Non disponibile.
6:50 AM 5:31 PM
Luna crescente, 30% visible
METAR KSLO 131235Z AUTO 35006KT 10SM CLR M11/M16 A3062 RMK AO2 T11101164
Pressione 30.62 in
Visibilità 10.0 miglia
Nuvole Sereno
Raffreddamento del vento 3 °F
Punto di rugiada 3 °F
Umidità 73%
Piovosità 0.00 in
Spessore del manto nevoso Non disponibile.
6:50 AM 5:31 PM
Luna crescente, 30% visible
METAR KSLO 131235Z AUTO 35006KT 10SM CLR M11/M16 A3062 RMK AO2 T11101164

10-Day Weather Forecast

Almanac

Astronomia

Feb. 13, 2016 Alba Tramonto
Ora attuale
Crepuscolo civile
Crepuscolo nautico
Crepuscolo astronomico
Luna
Estensione della luce visibile
Lunghezza del giorno
Tomorrow will be .
, % of the Moon is Illuminated

Gli estremi di oggi

State Highs State Lows

Community

WunderPhotos

Upload Photos

1,892,543 foto caricate!

WunderBlog® & News

Nearby

Qualità dell'aria

  Qualità dell'aria Indice AQ Inquinante
Not available.

Profondità neve

Stazione Profondità Altitudine

Attività sismica

Città  Distanza Mag. Data & Ora
Minimo Magnitudo Mostrato è 2.5.

Temperature delle acque costiere

Località Temperatura

Stations

Stazioni meteo nelle vicinanze

Ubicazione della stazione Temp. Raffreddamento del vento Punto di rugiada Umidità Vento Precip. Alt. Aggiornato Tipo
                   

Watches & Warnings

There are currently no watches in effect.